| time (UTC) | temp F | wind direction | speed MPH | gust MPH | rain 1hr in | rain 24hr in | rain mn in | humidity % | barometer mb |
| 20260508080523 | 71 | 313 | 6.0 | 10.0 | 0.00 | 0.00 | 0.00 | 66 | 1012.2 |
| 20260508075521 | 71 | 321 | 5.0 | 9.0 | 0.00 | 0.00 | 0.00 | 66 | 1012.3 |
| 20260508074522 | 71 | 5 | 5.0 | 9.0 | 0.00 | 0.00 | 0.00 | 65 | 1012.2 |
| 20260508073523 | 72 | 288 | 3.0 | 7.0 | 0.00 | 0.00 | 0.00 | 66 | 1012.2 |
| 20260508072522 | 71 | 336 | 2.0 | 5.0 | 0.00 | 0.00 | 0.00 | 66 | 1012.1 |
| 20260508071521 | 70 | 293 | 2.0 | 5.0 | 0.00 | 0.00 | 0.00 | 67 | 1012.2 |
| 20260508065523 | 69 | 266 | 1.0 | 4.0 | 0.00 | 0.00 | 0.00 | 69 | 1012.2 |
| 20260508064520 | 69 | 326 | 1.0 | 3.0 | 0.00 | 0.00 | 0.00 | 69 | 1012.0 |
| 20260508063521 | 69 | 355 | 1.0 | 3.0 | 0.00 | 0.00 | 0.00 | 71 | 1012.0 |
| 20260508061522 | 68 | 355 | 0.0 | 1.0 | 0.00 | 0.00 | 0.00 | 70 | 1011.9 |
| 20260508060522 | 68 | 355 | 1.0 | 3.0 | 0.00 | 0.00 | 0.00 | 71 | 1011.7 |
| 20260508055518 | 67 | 197 | 0.0 | 0.0 | 0.00 | 0.00 | 0.00 | 71 | 1011.6 |
| 20260508054519 | 67 | 197 | 0.0 | 0.0 | 0.00 | 0.00 | 0.00 | 72 | 1011.5 |
| 20260508053521 | 66 | 197 | 0.0 | 2.0 | 0.00 | 0.00 | 0.00 | 72 | 1011.5 |
| 20260508052517 | 65 | 197 | 2.0 | 5.0 | 0.00 | 0.00 | 0.00 | 73 | 1011.3 |
| 20260508051512 | 65 | 198 | 0.0 | 1.0 | 0.00 | 0.00 | 0.00 | 74 | 1011.2 |
| 20260508050511 | 65 | 198 | 1.0 | 3.0 | 0.00 | 0.00 | 0.00 | 74 | 1011.1 |
| 20260508044508 | 64 | 177 | 2.0 | 5.0 | 0.00 | 0.00 | 0.00 | 74 | 1010.8 |
| 20260508043515 | 64 | 202 | 1.0 | 4.0 | 0.00 | 0.00 | 0.00 | 75 | 1010.7 |
| 20260508042507 | 64 | 202 | 2.0 | 4.0 | 0.00 | 0.00 | 0.00 | 74 | 1010.7 |
| 20260508041508 | 65 | 202 | 1.0 | 3.0 | 0.00 | 0.00 | 0.00 | 74 | 1010.6 |
| 20260508040506 | 65 | 202 | 1.0 | 3.0 | 0.00 | 0.00 | 0.00 | 73 | 1010.6 |
| 20260508035506 | 65 | 202 | 0.0 | 1.0 | 0.00 | 0.00 | 0.00 | 72 | 1010.3 |
| 20260508034508 | 65 | 202 | 2.0 | 6.0 | 0.00 | 0.00 | 0.00 | 72 | 1010.2 |
| 20260508033506 | 66 | 215 | 3.0 | 5.0 | 0.00 | 0.00 | 0.00 | 72 | 1010.2 |
| 20260508032507 | 66 | 201 | 2.0 | 4.0 | 0.00 | 0.00 | 0.00 | 72 | 1010.2 |
| 20260508031506 | 66 | 201 | 3.0 | 4.0 | 0.00 | 0.00 | 0.00 | 71 | 1010.0 |
| 20260508030508 | 66 | 228 | 3.0 | 4.0 | 0.00 | 0.00 | 0.00 | 71 | 1010.0 |
| 20260508025503 | 66 | 219 | 3.0 | 6.0 | 0.00 | 0.00 | 0.00 | 71 | 1010.0 |
| 20260508024500 | 67 | 196 | 3.0 | 5.0 | 0.00 | 0.00 | 0.00 | 70 | 1009.8 |
| 20260508023502 | 67 | 230 | 2.0 | 4.0 | 0.00 | 0.00 | 0.00 | 70 | 1009.9 |
| 20260508022500 | 67 | 267 | 3.0 | 7.0 | 0.00 | 0.00 | 0.00 | 70 | 1009.9 |
| 20260508021500 | 67 | 239 | 2.0 | 5.0 | 0.00 | 0.00 | 0.00 | 70 | 1009.7 |
| 20260508020506 | 67 | 274 | 2.0 | 4.0 | 0.00 | 0.00 | 0.00 | 70 | 1009.6 |
| 20260508015504 | 67 | 192 | 3.0 | 6.0 | 0.00 | 0.00 | 0.00 | 70 | 1009.6 |
| 20260508014458 | 67 | 218 | 2.0 | 4.0 | 0.00 | 0.00 | 0.00 | 70 | 1009.5 |
| 20260508013458 | 66 | 251 | 1.0 | 5.0 | 0.00 | 0.00 | 0.00 | 70 | 1009.4 |
| 20260508012458 | 66 | 86 | 0.0 | 3.0 | 0.00 | 0.00 | 0.00 | 71 | 1009.4 |
| 20260508011458 | 67 | 86 | 0.0 | 0.0 | 0.00 | 0.00 | 0.00 | 71 | 1009.7 |
| 20260508010456 | 67 | 86 | 0.0 | 0.0 | 0.00 | 0.00 | 0.00 | 71 | 1009.6 |
| 20260508005456 | 67 | 86 | 0.0 | 2.0 | 0.00 | 0.00 | 0.00 | 71 | 1009.6 |
| 20260508004459 | 67 | 86 | 1.0 | 3.0 | 0.00 | 0.00 | 0.00 | 70 | 1009.4 |
| 20260508003452 | 68 | 120 | 2.0 | 6.0 | 0.00 | 0.00 | 0.00 | 68 | 1009.8 |
| 20260508002453 | 68 | 144 | 4.0 | 9.0 | 0.00 | 0.00 | 0.00 | 67 | 1009.9 |
| 20260508001450 | 67 | 207 | 3.0 | 9.0 | 0.00 | 0.00 | 0.00 | 68 | 1010.5 |
| 20260508000450 | 67 | 207 | 1.0 | 6.0 | 0.00 | 0.00 | 0.00 | 69 | 1010.1 |
| 20260507235450 | 67 | 239 | 2.0 | 9.0 | 0.00 | 0.00 | 0.00 | 69 | 1010.1 |
| 20260507234449 | 67 | 171 | 2.0 | 4.0 | 0.00 | 0.00 | 0.00 | 70 | 1010.3 |
| 20260507233448 | 67 | 146 | 1.0 | 4.0 | 0.00 | 0.00 | 0.00 | 70 | 1010.5 |
| 20260507232448 | 67 | 146 | 1.0 | 5.0 | 0.00 | 0.00 | 0.00 | 70 | 1010.8 |
| 20260507231448 | 67 | 215 | 0.0 | 1.0 | 0.00 | 0.00 | 0.00 | 70 | 1011.1 |
| 20260507230447 | 67 | 215 | 0.0 | 0.0 | 0.00 | 0.00 | 0.00 | 69 | 1010.8 |
| 20260507225448 | 67 | 215 | 0.0 | 0.0 | 0.00 | 0.00 | 0.00 | 70 | 1010.4 |
| 20260507223445 | 67 | 215 | 1.0 | 3.0 | 0.00 | 0.00 | 0.00 | 69 | 1010.5 |
| 20260507222447 | 67 | 192 | 1.0 | 5.0 | 0.00 | 0.00 | 0.00 | 70 | 1010.4 |
| 20260507221446 | 68 | 205 | 1.0 | 3.0 | 0.00 | 0.00 | 0.00 | 69 | 1010.5 |
| 20260507215438 | 67 | 238 | 3.0 | 7.0 | 0.00 | 0.00 | 0.00 | 70 | 1010.8 |
| 20260507214442 | 67 | 298 | 6.0 | 9.0 | 0.00 | 0.00 | 0.00 | 72 | 1010.9 |
| 20260507212440 | 67 | 80 | 3.0 | 6.0 | 0.00 | 0.00 | 0.00 | 70 | 1010.6 |
| 20260507211436 | 68 | 128 | 4.0 | 10.0 | 0.00 | 0.00 | 0.00 | 69 | 1010.8 |
| 20260507210437 | 68 | 214 | 6.0 | 11.0 | 0.00 | 0.00 | 0.00 | 69 | 1011.1 |
| 20260507205438 | 68 | 236 | 5.0 | 14.0 | 0.00 | 0.00 | 0.00 | 69 | 1011.0 |
| 20260507204438 | 68 | 236 | 4.0 | 7.0 | 0.00 | 0.00 | 0.00 | 69 | 1010.6 |
| 20260507203437 | 68 | 211 | 2.0 | 4.0 | 0.00 | 0.00 | 0.00 | 69 | 1010.5 |
| 20260507202438 | 68 | 196 | 1.0 | 4.0 | 0.00 | 0.00 | 0.00 | 69 | 1010.4 |
| 20260507200437 | 68 | 226 | 3.0 | 10.0 | 0.00 | 0.00 | 0.00 | 68 | 1010.6 |
| 20260507195436 | 68 | 172 | 4.0 | 13.0 | 0.00 | 0.00 | 0.00 | 69 | 1010.9 |
| 20260507194436 | 68 | 225 | 4.0 | 6.0 | 0.00 | 0.00 | 0.00 | 69 | 1010.8 |
| 20260507192436 | 68 | 292 | 0.0 | 4.0 | 0.00 | 0.00 | 0.00 | 69 | 1010.4 |
| 20260507191438 | 68 | 171 | 0.0 | 2.0 | 0.00 | 0.00 | 0.00 | 69 | 1010.2 |
| 20260507190437 | 68 | 171 | 0.0 | 3.0 | 0.00 | 0.00 | 0.00 | 69 | 1010.1 |
| 20260507185434 | 68 | 179 | 3.0 | 8.0 | 0.00 | 0.00 | 0.00 | 69 | 1010.3 |
| 20260507184434 | 68 | 259 | 4.0 | 9.0 | 0.00 | 0.00 | 0.00 | 69 | 1010.2 |
| 20260507183436 | 69 | 336 | 4.0 | 11.0 | 0.00 | 0.00 | 0.00 | 67 | 1010.1 |
| 20260507182430 | 69 | 221 | 7.0 | 16.0 | 0.00 | 0.00 | 0.00 | 66 | 1009.7 |
| 20260507181430 | 69 | 163 | 3.0 | 13.0 | 0.00 | 0.00 | 0.00 | 67 | 1009.5 |
| 20260507180430 | 69 | 285 | 6.0 | 13.0 | 0.00 | 0.00 | 0.00 | 67 | 1009.7 |
| 20260507174430 | 69 | 260 | 5.0 | 9.0 | 0.00 | 0.00 | 0.00 | 66 | 1009.8 |
| 20260507173432 | 69 | 241 | 10.0 | 22.0 | 0.00 | 0.00 | 0.00 | 64 | 1010.1 |
| 20260507172431 | 69 | 234 | 7.0 | 18.0 | 0.00 | 0.00 | 0.00 | 64 | 1010.0 |
| 20260507171430 | 70 | 179 | 6.0 | 17.0 | 0.00 | 0.00 | 0.00 | 65 | 1010.3 |
| 20260507170436 | 70 | 205 | 6.0 | 13.0 | 0.00 | 0.00 | 0.00 | 65 | 1010.2 |
| 20260507164434 | 71 | 250 | 6.0 | 12.0 | 0.00 | 0.00 | 0.00 | 63 | 1010.0 |
| 20260507163430 | 71 | 311 | 2.0 | 7.0 | 0.00 | 0.00 | 0.00 | 63 | 1010.0 |
| 20260507162430 | 70 | 19 | 6.0 | 17.0 | 0.00 | 0.00 | 0.00 | 62 | 1009.9 |
| 20260507161432 | 70 | 153 | 11.0 | 29.0 | 0.00 | 0.00 | 0.00 | 63 | 1009.9 |
| 20260507160432 | 70 | 138 | 15.0 | 31.0 | 0.00 | 0.00 | 0.00 | 63 | 1009.6 |
| 20260507155430 | 71 | 181 | 12.0 | 26.0 | 0.00 | 0.00 | 0.00 | 62 | 1009.2 |
| 20260507154430 | 71 | 159 | 15.0 | 30.0 | 0.00 | 0.00 | 0.00 | 61 | 1009.7 |
| 20260507152429 | 71 | 31 | 14.0 | 25.0 | 0.00 | 0.00 | 0.00 | 60 | 1009.9 |
| 20260507151432 | 72 | 144 | 10.0 | 23.0 | 0.00 | 0.00 | 0.00 | 60 | 1009.6 |
| 20260507150430 | 71 | 148 | 13.0 | 26.0 | 0.00 | 0.00 | 0.00 | 60 | 1009.7 |
| 20260507145430 | 71 | 112 | 12.0 | 31.0 | 0.00 | 0.00 | 0.00 | 59 | 1009.3 |
| 20260507144432 | 71 | 69 | 14.0 | 27.0 | 0.00 | 0.00 | 0.00 | 58 | 1009.4 |
| 20260507143432 | 71 | 153 | 15.0 | 29.0 | 0.00 | 0.00 | 0.00 | 59 | 1009.5 |
| 20260507142430 | 71 | 142 | 18.0 | 37.0 | 0.00 | 0.00 | 0.00 | 59 | 1009.1 |
| 20260507141430 | 71 | 100 | 16.0 | 39.0 | 0.00 | 0.00 | 0.00 | 59 | 1009.3 |
| 20260507140430 | 71 | 126 | 15.0 | 29.0 | 0.00 | 0.00 | 0.00 | 58 | 1009.5 |
| 20260507135430 | 71 | 138 | 19.0 | 33.0 | 0.00 | 0.00 | 0.00 | 58 | 1009.7 |
| 20260507133430 | 72 | 148 | 15.0 | 31.0 | 0.00 | 0.00 | 0.00 | 56 | 1009.8 |
| 20260507131430 | 73 | 159 | 13.0 | 38.0 | 0.00 | 0.00 | 0.00 | 53 | 1010.2 |
| 20260507124429 | 73 | 317 | 16.0 | 31.0 | 0.00 | 0.00 | 0.00 | 52 | 1010.6 |
| 20260507123431 | 73 | 148 | 19.0 | 39.0 | 0.00 | 0.00 | 0.00 | 52 | 1010.4 |
| 20260507122430 | 73 | 188 | 17.0 | 48.0 | 0.00 | 0.00 | 0.00 | 51 | 1010.4 |
| 20260507121432 | 73 | 163 | 14.0 | 23.0 | 0.00 | 0.00 | 0.00 | 49 | 1010.5 |
| 20260507120434 | 73 | 159 | 15.0 | 38.0 | 0.00 | 0.00 | 0.00 | 48 | 1010.5 |
| 20260507115430 | 74 | 105 | 10.0 | 25.0 | 0.00 | 0.00 | 0.00 | 46 | 1010.6 |
| 20260507113431 | 75 | 145 | 10.0 | 21.0 | 0.00 | 0.00 | 0.00 | 41 | 1010.9 |
| 20260507112427 | 75 | 138 | 13.0 | 31.0 | 0.00 | 0.00 | 0.00 | 39 | 1010.9 |
| 20260507110429 | 78 | 146 | 4.0 | 18.0 | 0.00 | 0.00 | 0.00 | 35 | 1011.0 |
| 20260507105431 | 78 | 175 | 3.0 | 10.0 | 0.00 | 0.00 | 0.00 | 34 | 1011.0 |
| 20260507103427 | 76 | 151 | 5.0 | 15.0 | 0.00 | 0.00 | 0.00 | 32 | 1011.2 |
| 20260507102427 | 75 | 123 | 6.0 | 15.0 | 0.00 | 0.00 | 0.00 | 32 | 1011.2 |
| 20260507101428 | 76 | 127 | 6.0 | 15.0 | 0.00 | 0.00 | 0.00 | 32 | 1011.1 |
| 20260507100429 | 76 | 216 | 6.0 | 15.0 | 0.00 | 0.00 | 0.00 | 32 | 1011.3 |
| 20260507094429 | 75 | 159 | 13.0 | 25.0 | 0.00 | 0.00 | 0.00 | 31 | 1012.0 |
| 20260507093427 | 75 | 186 | 10.0 | 31.0 | 0.00 | 0.00 | 0.00 | 32 | 1011.8 |
| 20260507092427 | 74 | 209 | 11.0 | 36.0 | 0.00 | 0.00 | 0.00 | 33 | 1011.8 |
| 20260507091434 | 75 | 182 | 6.0 | 17.0 | 0.00 | 0.00 | 0.00 | 36 | 1011.7 |
| 20260507090643 | 74 | 167 | 6.0 | 17.0 | 0.00 | 0.00 | 0.00 | 36 | 1011.7 |
| 20260507085428 | 74 | 205 | 9.0 | 17.0 | 0.00 | 0.00 | 0.00 | 38 | 1011.8 |
| 20260507084427 | 74 | 175 | 9.0 | 20.0 | 0.00 | 0.00 | 0.00 | 39 | 1012.1 |
| 20260507083427 | 73 | 167 | 9.0 | 23.0 | 0.00 | 0.00 | 0.00 | 41 | 1012.0 |
| 20260507082427 | 73 | 198 | 6.0 | 19.0 | 0.00 | 0.00 | 0.00 | 43 | 1012.0 |